createdAt,value
2023-01-20T00:01:46.678Z,4.82
2023-01-20T00:04:15.104Z,4.90
2023-01-20T00:06:42.430Z,5.20
2023-01-20T00:09:16.762Z,4.70
2023-01-20T00:11:44.746Z,5.65
2023-01-20T00:14:12.199Z,5.22
2023-01-20T00:16:39.666Z,5.28
2023-01-20T00:19:06.966Z,5.38
2023-01-20T00:21:35.140Z,5.13
2023-01-20T00:24:02.495Z,5.60
2023-01-20T00:26:29.799Z,5.30
2023-01-20T00:28:57.958Z,5.53
2023-01-20T00:31:27.940Z,5.30
2023-01-20T00:33:57.444Z,5.60
2023-01-20T00:36:26.210Z,5.60
2023-01-20T00:38:53.754Z,5.05
2023-01-20T00:41:21.119Z,5.40
2023-01-20T00:43:48.527Z,5.75
2023-01-20T00:46:16.761Z,4.85
2023-01-20T00:48:44.071Z,5.80
2023-01-20T00:51:11.750Z,5.70
2023-01-20T00:53:39.115Z,5.82
2023-01-20T00:56:07.168Z,5.40
2023-01-20T00:58:34.688Z,5.85
2023-01-20T01:01:02.307Z,5.70
2023-01-20T01:03:29.743Z,5.40
2023-01-20T01:06:11.859Z,5.43
2023-01-20T01:08:40.944Z,5.85
2023-01-20T01:11:08.341Z,5.43
2023-01-20T01:13:37.263Z,6.10
2023-01-20T01:16:08.433Z,5.20
2023-01-20T01:18:35.840Z,5.28
2023-01-20T01:21:11.669Z,5.13
2023-01-20T01:23:38.987Z,5.22
2023-01-20T01:26:06.381Z,5.60
2023-01-20T01:28:33.697Z,5.28
2023-01-20T01:31:02.499Z,5.25
2023-01-20T01:33:30.335Z,5.55
2023-01-20T01:35:59.636Z,5.22
2023-01-20T01:38:27.601Z,5.20
2023-01-20T01:40:56.121Z,5.18
2023-01-20T01:43:35.190Z,5.47
2023-01-20T01:46:03.452Z,4.97
2023-01-20T01:48:38.972Z,4.93
2023-01-20T01:51:20.569Z,5.40
2023-01-20T01:53:57.501Z,5.47
2023-01-20T01:56:27.559Z,4.80
2023-01-20T01:58:57.466Z,5.10
2023-01-20T02:01:25.872Z,4.70
2023-01-20T02:04:13.065Z,4.60
2023-01-20T02:07:03.793Z,4.28
2023-01-20T02:09:31.636Z,4.40
2023-01-20T02:12:03.148Z,3.72
2023-01-20T02:14:38.426Z,4.63
2023-01-20T02:17:14.519Z,4.32
2023-01-20T02:20:06.429Z,3.85
2023-01-20T02:22:43.364Z,3.78
2023-01-20T02:25:44.933Z,3.83
2023-01-20T02:28:33.612Z,3.55
2023-01-20T02:31:31.183Z,3.13
2023-01-20T02:34:35.524Z,3.67
2023-01-20T02:37:15.377Z,3.95
2023-01-20T02:39:51.258Z,3.55
2023-01-20T02:42:26.740Z,3.20
2023-01-20T02:44:57.697Z,3.15
2023-01-20T02:47:37.814Z,2.95
2023-01-20T02:50:17.757Z,3.03
2023-01-20T02:52:50.748Z,2.70
2023-01-20T02:55:43.355Z,3.00
2023-01-20T02:58:30.092Z,3.10
2023-01-20T03:01:05.897Z,3.38
2023-01-20T03:03:36.936Z,3.03
2023-01-20T03:06:09.145Z,3.58
2023-01-20T03:08:39.008Z,3.30
2023-01-20T03:11:09.223Z,3.70
2023-01-20T03:13:59.541Z,3.67
2023-01-20T03:16:28.378Z,4.18
2023-01-20T03:18:56.334Z,4.35
2023-01-20T03:21:24.515Z,4.90
2023-01-20T03:23:54.107Z,4.43
2023-01-20T03:26:23.569Z,4.47
2023-01-20T03:28:51.128Z,4.93
2023-01-20T03:31:24.671Z,4.78
2023-01-20T03:33:55.847Z,5.07
2023-01-20T03:36:25.884Z,5.20
2023-01-20T03:38:55.707Z,6.18
2023-01-20T03:41:40.608Z,5.57
2023-01-20T03:44:13.816Z,5.90
2023-01-20T03:46:50.672Z,5.63
2023-01-20T03:49:48.902Z,6.13
2023-01-20T03:52:20.201Z,5.57
2023-01-20T03:55:26.075Z,6.07
2023-01-20T03:58:05.156Z,6.07
2023-01-20T04:00:37.873Z,6.80
2023-01-20T04:03:16.466Z,6.70
2023-01-20T04:05:46.224Z,6.68
2023-01-20T04:08:16.421Z,6.97
2023-01-20T04:10:48.272Z,6.78
2023-01-20T04:13:16.502Z,6.68
2023-01-20T04:15:45.764Z,6.63
2023-01-20T04:18:21.702Z,7.15
2023-01-20T04:21:01.746Z,6.30
2023-01-20T04:23:39.918Z,6.90
2023-01-20T04:26:07.219Z,6.13
2023-01-20T04:28:34.516Z,7.07
2023-01-20T04:31:01.910Z,6.63
2023-01-20T04:33:29.246Z,6.60
2023-01-20T04:35:56.508Z,6.45
2023-01-20T04:38:23.822Z,6.75
2023-01-20T04:40:51.692Z,7.15
2023-01-20T04:43:18.971Z,6.30
2023-01-20T04:45:46.260Z,6.95
2023-01-20T04:48:13.551Z,6.82
2023-01-20T04:50:41.586Z,6.30
2023-01-20T04:53:13.749Z,7.07
2023-01-20T04:55:40.983Z,6.88
2023-01-20T04:58:09.689Z,6.13
2023-01-20T05:00:37.100Z,6.43
2023-01-20T05:03:06.138Z,6.43
2023-01-20T05:05:33.549Z,6.50
2023-01-20T05:08:00.940Z,6.10
2023-01-20T05:10:28.261Z,6.32
2023-01-20T05:12:55.505Z,6.32
2023-01-20T05:15:22.761Z,6.57
2023-01-20T05:17:50.040Z,6.13
2023-01-20T05:20:19.106Z,6.18
2023-01-20T05:22:47.119Z,6.50
2023-01-20T05:25:14.740Z,6.50
2023-01-20T05:27:42.243Z,6.85
2023-01-20T05:30:10.302Z,5.95
2023-01-20T05:32:37.616Z,5.90
2023-01-20T05:35:05.545Z,5.53
2023-01-20T05:37:32.815Z,6.30
2023-01-20T05:40:00.155Z,6.40
2023-01-20T05:42:27.456Z,6.00
2023-01-20T05:44:54.682Z,6.07
2023-01-20T05:47:21.929Z,6.10
2023-01-20T05:49:49.286Z,5.50
2023-01-20T05:52:16.550Z,5.80
2023-01-20T05:54:43.846Z,6.22
2023-01-20T05:57:11.345Z,5.72
2023-01-20T05:59:38.677Z,5.63
2023-01-20T06:02:05.922Z,5.75
2023-01-20T06:04:33.237Z,5.65
2023-01-20T06:07:00.510Z,5.68
2023-01-20T06:09:27.748Z,6.07
2023-01-20T06:11:55.016Z,5.80
2023-01-20T06:14:22.302Z,5.47
2023-01-20T06:16:50.698Z,5.68
2023-01-20T06:19:17.945Z,5.68
2023-01-20T06:21:46.993Z,5.75
2023-01-20T06:24:14.372Z,5.35
2023-01-20T06:26:41.645Z,5.15
2023-01-20T06:29:08.933Z,5.07
2023-01-20T06:31:36.263Z,4.95
2023-01-20T06:34:04.056Z,4.55
2023-01-20T06:36:31.336Z,4.80
2023-01-20T06:38:58.615Z,4.72
2023-01-20T06:41:26.037Z,4.63
2023-01-20T06:43:53.402Z,4.10
2023-01-20T06:46:20.740Z,4.15
2023-01-20T06:48:48.171Z,3.90
2023-01-20T06:51:18.647Z,3.97
2023-01-20T06:53:46.913Z,4.00
2023-01-20T06:56:15.873Z,4.00
2023-01-20T06:58:43.292Z,3.90
2023-01-20T07:01:24.020Z,3.70
2023-01-20T07:03:51.625Z,4.00
2023-01-20T07:06:34.266Z,3.88
2023-01-20T07:09:02.431Z,3.85
2023-01-20T07:11:31.529Z,4.10
2023-01-20T07:13:59.146Z,3.92
2023-01-20T07:16:26.499Z,3.90
2023-01-20T07:18:54.357Z,4.07
2023-01-20T07:21:23.947Z,3.83
2023-01-20T07:23:52.642Z,4.35
2023-01-20T07:26:22.583Z,3.92
2023-01-20T07:28:50.257Z,4.00
2023-01-20T07:31:18.675Z,3.83
2023-01-20T07:33:46.425Z,4.13
2023-01-20T07:36:15.093Z,3.95
2023-01-20T07:38:42.875Z,4.07
2023-01-20T07:41:15.865Z,4.20
2023-01-20T07:43:44.391Z,4.07
2023-01-20T07:46:12.348Z,3.97
2023-01-20T07:48:40.427Z,4.30
2023-01-20T07:51:10.573Z,3.78
2023-01-20T07:53:40.694Z,4.45
2023-01-20T07:56:10.084Z,3.80
2023-01-20T07:58:38.024Z,4.28
2023-01-20T08:01:20.244Z,4.20
2023-01-20T08:03:48.011Z,3.70
2023-01-20T08:06:17.461Z,3.55
2023-01-20T08:08:45.197Z,3.65
2023-01-20T08:11:15.042Z,4.13
2023-01-20T08:13:43.346Z,3.67
2023-01-20T08:16:13.326Z,4.05
2023-01-20T08:18:41.422Z,3.97
2023-01-20T08:21:16.794Z,4.20
2023-01-20T08:23:44.069Z,3.78
2023-01-20T08:26:11.366Z,4.10
2023-01-20T08:28:38.692Z,3.67
2023-01-20T08:31:16.422Z,4.05
2023-01-20T08:33:44.823Z,3.17
2023-01-20T08:36:17.888Z,3.70
2023-01-20T08:38:46.733Z,3.53
2023-01-20T08:41:33.064Z,3.28
2023-01-20T08:44:01.761Z,3.15
2023-01-20T08:46:29.177Z,3.33
2023-01-20T08:48:57.017Z,3.10
2023-01-20T08:51:30.016Z,3.28
2023-01-20T08:53:57.830Z,2.53
2023-01-20T08:56:25.663Z,2.63
2023-01-20T08:58:54.015Z,2.40
2023-01-20T09:01:27.872Z,2.78
2023-01-20T09:04:05.397Z,2.45
2023-01-20T09:06:45.142Z,2.33
2023-01-20T09:09:14.287Z,2.40
2023-01-20T09:11:44.766Z,2.38
2023-01-20T09:14:12.213Z,2.28
2023-01-20T09:16:39.475Z,2.10
2023-01-20T09:19:06.848Z,2.08
2023-01-20T09:21:34.282Z,1.85
2023-01-20T09:24:01.664Z,2.15
2023-01-20T09:26:38.796Z,1.80
2023-01-20T09:29:10.249Z,1.83
2023-01-20T09:31:39.881Z,1.60
2023-01-20T09:34:07.435Z,1.73
2023-01-20T09:36:34.728Z,1.80
2023-01-20T09:39:20.639Z,1.90
2023-01-20T09:42:23.110Z,1.60
2023-01-20T09:44:57.198Z,1.40
2023-01-20T09:47:36.711Z,1.90
2023-01-20T09:50:22.779Z,1.38
2023-01-20T09:53:03.785Z,1.50
2023-01-20T09:55:46.245Z,1.55
2023-01-20T09:58:44.732Z,1.40
2023-01-20T10:01:41.883Z,1.58
2023-01-20T10:04:15.537Z,1.60
2023-01-20T10:06:51.441Z,1.20
2023-01-20T10:09:41.889Z,1.73
2023-01-20T10:12:18.235Z,1.30
2023-01-20T10:14:59.117Z,1.48
2023-01-20T10:17:37.167Z,1.55
2023-01-20T10:20:16.206Z,1.50
2023-01-20T10:22:55.633Z,1.30
2023-01-20T10:25:38.436Z,1.60
2023-01-20T10:28:30.970Z,1.10
2023-01-20T10:31:01.663Z,1.25
2023-01-20T10:33:35.475Z,1.20
2023-01-20T10:36:02.853Z,1.13
2023-01-20T10:38:40.248Z,1.23
2023-01-20T10:41:19.761Z,0.95
2023-01-20T10:43:48.353Z,1.15
2023-01-20T10:46:24.500Z,1.00
2023-01-20T10:49:10.552Z,1.20
2023-01-20T10:52:06.126Z,1.10
2023-01-20T10:54:53.639Z,1.10
2023-01-20T10:57:21.725Z,0.80
2023-01-20T10:59:53.460Z,0.90
2023-01-20T11:02:35.128Z,0.85
2023-01-20T11:05:15.884Z,1.00
2023-01-20T11:07:44.558Z,0.80
2023-01-20T11:10:18.396Z,0.90
2023-01-20T11:12:51.370Z,0.85
2023-01-20T11:15:21.019Z,0.80
2023-01-20T11:18:28.484Z,0.70
2023-01-20T11:21:26.048Z,1.00
2023-01-20T11:23:58.139Z,1.00
2023-01-20T11:26:34.812Z,1.00
2023-01-20T11:29:09.353Z,0.90
2023-01-20T11:31:51.281Z,0.90
2023-01-20T11:34:25.355Z,0.75
2023-01-20T11:37:17.367Z,0.90
2023-01-20T11:39:50.869Z,0.80
2023-01-20T11:42:27.416Z,0.90
2023-01-20T11:45:19.793Z,0.98
2023-01-20T11:48:02.338Z,0.90
2023-01-20T11:50:40.678Z,0.90
2023-01-20T11:53:17.982Z,0.80
2023-01-20T11:55:51.920Z,0.80
2023-01-20T11:58:23.097Z,0.70
2023-01-20T12:00:58.918Z,0.80
2023-01-20T12:03:32.308Z,0.70
2023-01-20T12:06:13.924Z,0.80
2023-01-20T12:08:52.579Z,0.70
2023-01-20T12:11:34.498Z,0.85
2023-01-20T12:14:28.619Z,1.10
2023-01-20T12:17:10.312Z,0.90
2023-01-20T12:19:56.323Z,0.80
2023-01-20T12:22:44.050Z,0.70
2023-01-20T12:25:24.625Z,1.40
2023-01-20T12:28:30.170Z,0.60
2023-01-20T12:31:02.817Z,0.80
2023-01-20T12:33:43.903Z,0.73
2023-01-20T12:36:49.785Z,0.70
2023-01-20T12:39:52.816Z,0.90
2023-01-20T12:42:37.954Z,0.60
2023-01-20T12:47:58.433Z,0.68
2023-01-20T12:50:37.343Z,0.80
2023-01-20T12:53:24.879Z,0.60
2023-01-20T12:56:26.018Z,0.70
2023-01-20T12:59:19.366Z,0.70
2023-01-20T13:01:49.659Z,0.57
2023-01-20T13:04:41.815Z,0.60
2023-01-20T13:07:36.874Z,0.98
2023-01-20T13:10:19.047Z,0.60
2023-01-20T13:13:01.910Z,0.60
2023-01-20T13:15:53.738Z,0.60
2023-01-20T13:18:50.807Z,0.50
2023-01-20T13:21:21.112Z,0.63
2023-01-20T13:23:50.819Z,0.60
2023-01-20T13:26:18.488Z,0.60
2023-01-20T13:28:55.869Z,0.60
2023-01-20T13:31:36.966Z,0.60
2023-01-20T13:34:22.675Z,0.75
2023-01-20T13:37:07.322Z,0.90
2023-01-20T13:39:40.596Z,0.68
2023-01-20T13:42:40.365Z,0.70
2023-01-20T13:45:14.261Z,0.57
2023-01-20T13:47:50.658Z,0.60
2023-01-20T13:50:25.535Z,0.65
2023-01-20T13:52:52.891Z,0.70
2023-01-20T13:55:52.166Z,0.80
2023-01-20T13:58:22.253Z,0.70
2023-01-20T14:01:00.993Z,0.93
2023-01-20T14:03:35.127Z,1.00
2023-01-20T14:06:07.255Z,0.80
2023-01-20T14:08:44.512Z,0.80
2023-01-20T14:11:13.060Z,0.70
2023-01-20T14:13:42.107Z,0.80
2023-01-20T14:16:41.380Z,0.80
2023-01-20T14:19:27.570Z,0.70
2023-01-20T14:22:51.243Z,1.00
2023-01-20T14:25:36.800Z,0.85
2023-01-20T14:28:17.611Z,0.90
2023-01-20T14:30:45.135Z,0.90
2023-01-20T14:33:16.716Z,1.17
2023-01-20T14:35:44.773Z,0.90
2023-01-20T14:38:18.636Z,1.10
2023-01-20T14:40:49.757Z,0.90
2023-01-20T14:43:22.595Z,1.00
2023-01-20T14:45:54.368Z,1.10
2023-01-20T14:48:33.977Z,1.08
2023-01-20T14:51:04.310Z,1.17
2023-01-20T14:53:31.767Z,1.13
2023-01-20T14:56:07.942Z,1.35
2023-01-20T14:58:36.538Z,1.55
2023-01-20T15:01:06.507Z,1.35
2023-01-20T15:03:34.271Z,1.40
2023-01-20T15:06:17.511Z,1.63
2023-01-20T15:09:05.005Z,1.80
2023-01-20T15:11:33.490Z,1.70
2023-01-20T15:14:00.945Z,1.70
2023-01-20T15:16:38.834Z,1.80
2023-01-20T15:19:16.607Z,1.88
2023-01-20T15:21:48.353Z,1.90
2023-01-20T15:24:34.537Z,2.00
2023-01-20T15:27:03.287Z,1.98
2023-01-20T15:29:35.655Z,2.13
2023-01-20T15:32:11.258Z,2.33
2023-01-20T15:34:38.635Z,2.00
2023-01-20T15:37:17.464Z,2.45
2023-01-20T15:39:44.735Z,2.15
2023-01-20T15:42:15.929Z,2.22
2023-01-20T15:44:43.247Z,2.47
2023-01-20T15:47:30.813Z,2.47
2023-01-20T15:49:58.755Z,2.60
2023-01-20T15:52:26.029Z,2.15
2023-01-20T15:54:53.287Z,2.72
2023-01-20T15:57:20.655Z,2.58
2023-01-20T15:59:49.788Z,2.30
2023-01-20T16:02:22.956Z,2.67
2023-01-20T16:04:50.494Z,2.80
2023-01-20T16:07:20.364Z,2.67
2023-01-20T16:09:48.572Z,2.63
2023-01-20T16:12:18.376Z,2.95
2023-01-20T16:14:45.949Z,2.85
2023-01-20T16:17:16.144Z,2.80
2023-01-20T16:19:43.595Z,3.25
2023-01-20T16:22:10.986Z,2.88
2023-01-20T16:24:39.104Z,2.90
2023-01-20T16:27:16.966Z,3.05
2023-01-20T16:29:45.185Z,3.05
2023-01-20T16:32:14.701Z,3.33
2023-01-20T16:34:44.224Z,3.42
2023-01-20T16:37:14.534Z,3.70
2023-01-20T16:39:41.872Z,3.45
2023-01-20T16:42:14.265Z,3.40
2023-01-20T16:44:41.727Z,3.50
2023-01-20T16:47:08.959Z,3.50
2023-01-20T16:49:36.383Z,3.63
2023-01-20T16:52:03.860Z,3.67
2023-01-20T16:54:31.289Z,3.50
2023-01-20T16:56:58.601Z,3.72
2023-01-20T16:59:26.085Z,4.07
2023-01-20T17:01:53.389Z,3.50
2023-01-20T17:04:20.673Z,3.40
2023-01-20T17:06:47.963Z,3.15
2023-01-20T17:09:15.297Z,3.50
2023-01-20T17:11:42.599Z,3.53
2023-01-20T17:14:11.568Z,3.65
2023-01-20T17:16:39.572Z,3.88
2023-01-20T17:19:07.003Z,3.72
2023-01-20T17:21:38.031Z,3.75
2023-01-20T17:24:05.951Z,3.80
2023-01-20T17:26:33.415Z,3.97
2023-01-20T17:29:05.427Z,3.75
2023-01-20T17:31:36.480Z,3.42
2023-01-20T17:34:09.372Z,3.65
2023-01-20T17:36:36.764Z,3.80
2023-01-20T17:39:05.687Z,3.97
2023-01-20T17:41:34.050Z,4.32
2023-01-20T17:44:01.710Z,4.25
2023-01-20T17:46:30.288Z,4.15
2023-01-20T17:48:58.434Z,4.50
2023-01-20T17:51:28.078Z,4.35
2023-01-20T17:53:57.178Z,4.70
2023-01-20T17:56:24.794Z,4.65
2023-01-20T17:58:52.104Z,4.45
2023-01-20T18:01:22.525Z,5.03
2023-01-20T18:03:52.360Z,5.18
2023-01-20T18:06:22.359Z,4.90
2023-01-20T18:08:58.244Z,5.30
2023-01-20T18:11:27.478Z,5.18
2023-01-20T18:13:56.957Z,5.05
2023-01-20T18:16:28.409Z,5.50
2023-01-20T18:18:58.756Z,5.20
2023-01-20T18:21:29.742Z,5.90
2023-01-20T18:23:58.504Z,5.82
2023-01-20T18:26:29.604Z,5.25
2023-01-20T18:28:58.714Z,5.43
2023-01-20T18:31:27.874Z,5.72
2023-01-20T18:33:58.180Z,5.32
2023-01-20T18:36:28.645Z,5.72
2023-01-20T18:39:01.572Z,5.97
2023-01-20T18:41:30.857Z,5.97
2023-01-20T18:43:58.320Z,6.68
2023-01-20T18:46:26.391Z,7.30
2023-01-20T18:48:55.319Z,7.78
2023-01-20T18:51:25.532Z,8.68
2023-01-20T18:54:01.246Z,9.02
2023-01-20T18:56:29.900Z,8.35
2023-01-20T18:58:57.260Z,8.82
2023-01-20T19:01:27.896Z,8.35
2023-01-20T19:03:56.741Z,8.23
2023-01-20T19:06:26.567Z,8.52
2023-01-20T19:08:55.265Z,9.27
2023-01-20T19:11:25.936Z,8.68
2023-01-20T19:13:53.697Z,8.48
2023-01-20T19:16:23.706Z,8.50
2023-01-20T19:18:56.534Z,8.70
2023-01-20T19:21:25.187Z,8.68
2023-01-20T19:23:54.783Z,8.40
2023-01-20T19:26:23.993Z,9.00
2023-01-20T19:29:03.235Z,7.90
2023-01-20T19:31:33.671Z,7.97
2023-01-20T19:34:01.374Z,8.27
2023-01-20T19:36:29.315Z,8.20
2023-01-20T19:38:56.708Z,9.65
2023-01-20T19:41:27.781Z,7.68
2023-01-20T19:43:57.272Z,7.95
2023-01-20T19:46:35.672Z,7.63
2023-01-20T19:49:03.309Z,7.55
2023-01-20T19:51:31.436Z,7.57
2023-01-20T19:54:00.469Z,7.45
2023-01-20T19:56:30.571Z,7.57
2023-01-20T19:59:00.619Z,7.25
2023-01-20T20:01:31.769Z,6.82
2023-01-20T20:04:04.333Z,6.45
2023-01-20T20:06:40.517Z,7.13
2023-01-20T20:09:16.557Z,6.60
2023-01-20T20:11:43.977Z,7.40
2023-01-20T20:14:16.943Z,7.55
2023-01-20T20:16:44.884Z,7.07
2023-01-20T20:19:16.011Z,8.32
2023-01-20T20:21:44.198Z,7.00
2023-01-20T20:24:13.397Z,7.97
2023-01-20T20:26:41.113Z,8.07
2023-01-20T20:29:09.001Z,7.95
2023-01-20T20:31:40.331Z,7.50
2023-01-20T20:34:11.077Z,8.07
2023-01-20T20:36:39.846Z,7.88
2023-01-20T20:39:07.929Z,7.45
2023-01-20T20:41:36.652Z,7.95
2023-01-20T20:44:04.912Z,7.88
2023-01-20T20:46:32.549Z,8.30
2023-01-20T20:49:01.299Z,8.13
2023-01-20T20:51:31.815Z,7.63
2023-01-20T20:54:01.228Z,8.00
2023-01-20T20:56:31.743Z,8.60
2023-01-20T20:59:02.551Z,8.88
2023-01-20T21:01:33.108Z,7.75
2023-01-20T21:04:01.460Z,8.30
2023-01-20T21:06:29.870Z,7.88
2023-01-20T21:08:58.702Z,8.15
2023-01-20T21:11:26.283Z,8.48
2023-01-20T21:13:53.783Z,9.05
2023-01-20T21:16:23.252Z,9.85
2023-01-20T21:18:53.207Z,8.57
2023-01-20T21:21:21.180Z,9.07
2023-01-20T21:23:54.055Z,8.82
2023-01-20T21:26:22.905Z,9.05
2023-01-20T21:28:50.321Z,9.40
2023-01-20T21:31:21.253Z,9.80
2023-01-20T21:33:57.101Z,9.50
2023-01-20T21:36:25.294Z,9.38
2023-01-20T21:38:52.596Z,9.85
2023-01-20T21:41:20.312Z,9.20
2023-01-20T21:44:06.678Z,10.15
2023-01-20T21:46:38.960Z,8.85
2023-01-20T21:49:29.117Z,9.65
2023-01-20T21:52:16.055Z,10.13
2023-01-20T21:54:45.191Z,13.35
2023-01-20T21:57:14.134Z,14.80
2023-01-20T21:59:42.071Z,14.23
2023-01-20T22:02:11.850Z,12.25
2023-01-20T22:04:40.002Z,13.32
2023-01-20T22:07:07.800Z,13.50
2023-01-20T22:09:35.360Z,13.20
2023-01-20T22:12:03.114Z,13.07
2023-01-20T22:14:32.303Z,13.13
2023-01-20T22:16:59.855Z,12.90
2023-01-20T22:19:27.456Z,12.57
2023-01-20T22:21:56.690Z,13.48
2023-01-20T22:24:24.049Z,12.15
2023-01-20T22:26:51.478Z,12.68
2023-01-20T22:29:19.481Z,13.30
2023-01-20T22:31:47.611Z,13.25
2023-01-20T22:34:14.920Z,12.20
2023-01-20T22:36:42.408Z,12.40
2023-01-20T22:39:11.926Z,12.93
2023-01-20T22:41:39.472Z,13.30
2023-01-20T22:44:07.229Z,12.20
2023-01-20T22:46:34.924Z,13.05
2023-01-20T22:49:02.371Z,12.23
2023-01-20T22:51:30.901Z,12.60
2023-01-20T22:54:00.146Z,12.55
2023-01-20T22:56:30.448Z,12.98
2023-01-20T22:58:58.727Z,13.52
2023-01-20T23:01:34.536Z,12.80
2023-01-20T23:04:04.197Z,13.23
2023-01-20T23:06:33.923Z,13.35
2023-01-20T23:09:07.262Z,13.07
2023-01-20T23:11:36.354Z,12.23
2023-01-20T23:14:04.043Z,12.93
2023-01-20T23:16:31.344Z,13.40
2023-01-20T23:18:58.752Z,13.18
2023-01-20T23:21:26.072Z,13.75
2023-01-20T23:23:56.073Z,13.35
2023-01-20T23:26:26.800Z,13.90
2023-01-20T23:28:55.439Z,13.07
2023-01-20T23:31:24.933Z,14.18
2023-01-20T23:33:54.425Z,13.05
2023-01-20T23:36:26.077Z,14.43
2023-01-20T23:38:55.169Z,14.07
2023-01-20T23:41:23.185Z,14.07
2023-01-20T23:43:50.611Z,13.73
2023-01-20T23:46:18.091Z,13.90
2023-01-20T23:48:46.707Z,14.27
2023-01-20T23:51:14.434Z,13.40
2023-01-20T23:53:41.837Z,13.48
2023-01-20T23:56:14.817Z,14.65
2023-01-20T23:58:42.402Z,14.35
